This demonstration page uses our WeatherBlox Daily Observations layout. Learn more.

39.92423, -83.80882

Hourly Observations for September 26, 2019

Temp ( °F °C ) Dew Point ( °F °C ) Humidity (%) Winds ( mph kmh ) Pressure ( in mb ) Visibility ( mi km ) Precip ( " mm )
12:56 am 00:56 Mostly Cloudy 65 18.3 62 16.7 90 90 SSW 3 6 29.8 1009 10 16.09344 0 0
1:56 am 01:56 Cloudy 66 18.9 64 17.8 93 93 SW 6 9 29.8 1009 10 16.09344 0 0
2:56 am 02:56 Cloudy 66 18.9 64 17.8 93 93 WSW 5 7 29.8 1009 10 16.09344 0 0
3:56 am 03:56 Cloudy 66 18.9 64 17.8 93 93 WSW 6 9 29.77 1008 10 16.09344 0 0
4:56 am 04:56 Cloudy 68 20 64 17.8 87 87 WNW 9 15 29.8 1009 10 16.09344 0 0
5:56 am 05:56 Cloudy 67 19.4 63 17.2 87 87 NW 9 15 29.83 1010 10 16.09344 0 0
6:56 am 06:56 Cloudy 65 18.3 61 16.1 87 87 NW 6 9 29.85 1011 10 16.09344 0 0
7:56 am 07:56 Sunny 63 17.2 60 15.6 90 90 WNW 7 11 29.85 1011 10 16.09344 0 0
8:56 am 08:56 Mostly Sunny 64 17.8 59 15 84 84 NW 10 17 29.88 1012 10 16.09344 0 0
9:56 am 09:56 Sunny 67 19.4 57 13.9 71 71 NNW 14 22 29.91 1013 10 16.09344 0 0
10:56 am 10:56 Sunny 70 21.1 54 12.2 57 57 NNW 13 20 29.94 1014 10 16.09344 0 0
11:56 am 11:56 Sunny 73 22.8 49 9.4 43 43 WNW 12 19 29.94 1014 10 16.09344 0 0
12:56 pm 12:56 Sunny 74 23.3 49 9.4 41 41 NW 14 22 29.94 1014 10 16.09344 0 0
1:56 pm 13:56 Sunny 75 23.9 48 8.9 39 39 NW 7 11 29.91 1013 10 16.09344 0 0
2:56 pm 14:56 Sunny 76 24.4 40 4.4 27 27 NW 13 20 29.91 1013 10 16.09344 0 0
3:56 pm 15:56 Sunny 76 24.4 40 4.4 27 27 NW 9 15 29.91 1013 10 16.09344 0 0
4:56 pm 16:56 Sunny 76 24.4 41 5 29 29 NW 8 13 29.91 1013 10 16.09344 0 0
5:56 pm 17:56 Sunny 75 23.9 41 5 29 29 NW 9 15 29.94 1014 10 16.09344 0 0
6:56 pm 18:56 Sunny 71 21.7 41 5 34 34 NNW 9 15 29.94 1014 10 16.09344 0 0
7:56 pm 19:56 Clear 65 18.3 42 5.6 43 43 N 5 7 29.97 1015 10 16.09344 0 0
8:56 pm 20:56 Clear 61 16.1 42 5.6 50 50 NNW 5 7 29.97 1015 10 16.09344 0 0
9:56 pm 21:56 Clear 58 14.4 44 6.7 60 60 Calm 29.97 1015 10 16.09344 0 0
10:56 pm 22:56 Clear 53 11.7 45 7.2 74 74 Calm 30 1016 10 16.09344 0 0
11:56 pm 23:56 Clear 52 11.1 45 7.2 77 77 Calm 30 1016 10 16.09344 0 0

Powered by AerisWeather